createdAt,value
2022-08-25T00:02:03.134Z,100.00
2022-08-25T00:04:31.525Z,100.00
2022-08-25T00:07:03.120Z,100.00
2022-08-25T00:09:31.641Z,100.00
2022-08-25T00:11:59.080Z,100.00
2022-08-25T00:14:34.388Z,100.00
2022-08-25T00:17:02.064Z,100.00
2022-08-25T00:19:33.408Z,100.00
2022-08-25T00:22:01.548Z,100.00
2022-08-25T00:24:28.708Z,100.00
2022-08-25T00:26:57.505Z,100.00
2022-08-25T00:29:26.488Z,100.00
2022-08-25T00:31:54.009Z,100.00
2022-08-25T00:34:26.401Z,100.00
2022-08-25T00:36:53.934Z,100.00
2022-08-25T00:39:23.160Z,100.00
2022-08-25T00:41:52.171Z,100.00
2022-08-25T00:44:19.381Z,100.00
2022-08-25T00:46:52.607Z,100.00
2022-08-25T00:49:24.820Z,100.00
2022-08-25T00:51:59.191Z,100.00
2022-08-25T00:54:31.516Z,100.00
2022-08-25T00:57:00.803Z,100.00
2022-08-25T00:59:28.295Z,100.00
2022-08-25T01:01:56.302Z,100.00
2022-08-25T01:04:24.047Z,100.00
2022-08-25T01:06:51.297Z,100.00
2022-08-25T01:09:20.013Z,100.00
2022-08-25T01:11:47.620Z,100.00
2022-08-25T01:14:18.884Z,100.00
2022-08-25T01:16:46.433Z,100.00
2022-08-25T01:19:17.836Z,100.00
2022-08-25T01:21:53.009Z,100.00
2022-08-25T01:24:31.491Z,100.00
2022-08-25T01:26:58.779Z,100.00
2022-08-25T01:29:25.765Z,100.00
2022-08-25T01:32:00.270Z,100.00
2022-08-25T01:34:29.904Z,100.00
2022-08-25T01:36:59.092Z,100.00
2022-08-25T01:39:27.640Z,100.00
2022-08-25T01:42:06.187Z,100.00
2022-08-25T01:44:35.962Z,100.00
2022-08-25T01:47:04.101Z,100.00
2022-08-25T01:49:30.873Z,100.00
2022-08-25T01:52:05.493Z,100.00
2022-08-25T01:54:32.606Z,100.00
2022-08-25T01:56:59.608Z,100.00
2022-08-25T01:59:27.484Z,100.00
2022-08-25T02:01:57.465Z,100.00
2022-08-25T02:04:29.566Z,100.00
2022-08-25T02:06:56.352Z,100.00
2022-08-25T02:09:23.273Z,100.00
2022-08-25T02:11:50.956Z,100.00
2022-08-25T02:14:19.957Z,100.00
2022-08-25T02:16:50.977Z,100.00
2022-08-25T02:19:19.444Z,100.00
2022-08-25T02:21:46.856Z,100.00
2022-08-25T02:24:14.198Z,100.00
2022-08-25T02:26:41.420Z,100.00
2022-08-25T02:29:08.921Z,100.00
2022-08-25T02:31:36.540Z,100.00
2022-08-25T02:34:03.909Z,100.00
2022-08-25T02:36:32.220Z,100.00
2022-08-25T02:38:59.503Z,100.00
2022-08-25T02:41:30.909Z,100.00
2022-08-25T02:43:58.133Z,100.00
2022-08-25T02:46:25.183Z,100.00
2022-08-25T02:48:53.415Z,100.00
2022-08-25T02:51:22.570Z,100.00
2022-08-25T02:53:50.008Z,100.00
2022-08-25T02:56:18.749Z,100.00
2022-08-25T02:58:46.425Z,100.00
2022-08-25T03:01:13.871Z,100.00
2022-08-25T03:03:42.189Z,100.00
2022-08-25T03:06:12.080Z,100.00
2022-08-25T03:08:39.779Z,100.00
2022-08-25T03:11:06.981Z,100.00
2022-08-25T03:13:34.320Z,100.00
2022-08-25T03:16:03.006Z,100.00
2022-08-25T03:18:30.525Z,100.00
2022-08-25T03:20:57.805Z,100.00
2022-08-25T03:23:24.811Z,100.00
2022-08-25T03:26:12.469Z,100.00
2022-08-25T03:28:39.204Z,100.00
2022-08-25T03:31:06.266Z,100.00
2022-08-25T03:33:33.419Z,100.00
2022-08-25T03:36:00.426Z,100.00
2022-08-25T03:38:28.008Z,100.00
2022-08-25T03:40:54.801Z,100.00
2022-08-25T03:43:22.421Z,100.00
2022-08-25T03:45:49.297Z,100.00
2022-08-25T03:48:17.793Z,100.00
2022-08-25T03:50:50.610Z,100.00
2022-08-25T03:53:19.814Z,100.00
2022-08-25T03:55:46.914Z,100.00
2022-08-25T03:58:14.248Z,100.00
2022-08-25T04:00:41.004Z,100.00
2022-08-25T04:03:07.815Z,100.00
2022-08-25T04:05:35.425Z,100.00
2022-08-25T04:08:02.355Z,100.00
2022-08-25T04:10:29.900Z,100.00
2022-08-25T04:12:58.419Z,100.00
2022-08-25T04:15:30.138Z,100.00
2022-08-25T04:17:59.001Z,100.00
2022-08-25T04:20:25.942Z,100.00
2022-08-25T04:22:52.795Z,100.00
2022-08-25T04:25:19.716Z,100.00
2022-08-25T04:27:46.471Z,100.00
2022-08-25T04:30:13.808Z,100.00
2022-08-25T04:32:40.631Z,100.00
2022-08-25T04:35:07.803Z,100.00
2022-08-25T04:37:34.928Z,100.00
2022-08-25T04:40:02.198Z,100.00
2022-08-25T04:42:29.008Z,100.00
2022-08-25T04:47:46.237Z,100.00
2022-08-25T04:50:13.071Z,100.00
2022-08-25T04:52:39.845Z,100.00
2022-08-25T04:55:07.504Z,100.00
2022-08-25T04:57:34.505Z,100.00
2022-08-25T05:00:02.357Z,100.00
2022-08-25T05:02:29.157Z,100.00
2022-08-25T05:04:57.282Z,100.00
2022-08-25T05:07:24.108Z,100.00
2022-08-25T05:09:53.240Z,100.00
2022-08-25T05:12:20.855Z,100.00
2022-08-25T05:14:48.512Z,100.00
2022-08-25T05:17:18.021Z,100.00
2022-08-25T05:19:44.919Z,100.00
2022-08-25T05:22:11.755Z,100.00
2022-08-25T05:24:38.625Z,100.00
2022-08-25T05:27:05.591Z,100.00
2022-08-25T05:29:32.371Z,100.00
2022-08-25T05:31:59.346Z,100.00
2022-08-25T05:34:26.152Z,100.00
2022-08-25T05:36:53.094Z,100.00
2022-08-25T05:39:20.029Z,100.00
2022-08-25T05:41:46.853Z,100.00
2022-08-25T05:44:15.948Z,100.00
2022-08-25T05:46:44.932Z,100.00
2022-08-25T05:49:11.737Z,100.00
2022-08-25T05:51:38.580Z,100.00
2022-08-25T05:54:05.900Z,100.00
2022-08-25T05:56:32.639Z,100.00
2022-08-25T05:59:00.551Z,100.00
2022-08-25T06:01:48.017Z,99.38
2022-08-25T06:04:17.947Z,97.88
2022-08-25T06:06:44.765Z,97.24
2022-08-25T06:09:15.380Z,96.21
2022-08-25T06:11:42.993Z,96.27
2022-08-25T06:14:10.695Z,94.42
2022-08-25T06:16:39.220Z,94.34
2022-08-25T06:19:07.535Z,94.38
2022-08-25T06:21:34.272Z,90.67
2022-08-25T06:24:01.826Z,92.24
2022-08-25T06:26:28.581Z,91.25
2022-08-25T06:28:55.401Z,91.17
2022-08-25T06:31:22.696Z,90.30
2022-08-25T06:33:50.721Z,88.00
2022-08-25T06:36:17.827Z,86.79
2022-08-25T06:38:44.881Z,86.31
2022-08-25T06:41:12.785Z,85.79
2022-08-25T06:43:47.421Z,85.18
2022-08-25T06:46:19.634Z,84.05
2022-08-25T06:48:46.453Z,82.42
2022-08-25T06:51:15.571Z,82.43
2022-08-25T06:53:44.086Z,81.02
2022-08-25T06:56:11.872Z,82.33
2022-08-25T06:58:39.340Z,81.03
2022-08-25T07:01:15.881Z,80.73
2022-08-25T07:03:47.545Z,79.14
2022-08-25T07:06:18.310Z,78.63
2022-08-25T07:08:46.552Z,77.62
2022-08-25T07:11:16.187Z,76.72
2022-08-25T07:13:44.242Z,76.75
2022-08-25T07:16:15.595Z,77.06
2022-08-25T07:18:44.161Z,74.88
2022-08-25T07:21:12.450Z,75.58
2022-08-25T07:23:40.930Z,74.53
2022-08-25T07:26:27.090Z,74.06
2022-08-25T07:28:58.897Z,73.83
2022-08-25T07:31:27.118Z,73.05
2022-08-25T07:34:15.056Z,73.82
2022-08-25T07:36:43.687Z,72.27
2022-08-25T07:39:10.642Z,72.05
2022-08-25T07:41:39.989Z,72.13
2022-08-25T07:44:08.605Z,72.54
2022-08-25T07:46:35.423Z,69.99
2022-08-25T07:49:02.345Z,70.25
2022-08-25T07:51:29.166Z,70.68
2022-08-25T07:53:56.054Z,69.65
2022-08-25T07:56:23.638Z,69.77
2022-08-25T07:58:50.748Z,68.96
2022-08-25T08:01:19.886Z,68.70
2022-08-25T08:03:50.850Z,69.66
2022-08-25T08:06:21.630Z,68.61
2022-08-25T08:08:50.424Z,67.93
2022-08-25T08:11:23.965Z,67.46
2022-08-25T08:13:51.935Z,68.34
2022-08-25T08:16:20.452Z,67.88
2022-08-25T08:18:48.166Z,66.33
2022-08-25T08:21:22.651Z,66.14
2022-08-25T08:23:50.584Z,65.79
2022-08-25T08:26:18.202Z,65.84
2022-08-25T08:28:51.891Z,64.60
2022-08-25T08:31:24.744Z,65.01
2022-08-25T08:33:55.017Z,64.17
2022-08-25T08:36:25.473Z,64.84
2022-08-25T08:38:52.949Z,62.54
2022-08-25T08:45:11.512Z,62.13
2022-08-25T08:47:52.987Z,63.02
2022-08-25T08:50:50.759Z,62.21
2022-08-25T08:53:27.617Z,62.32
2022-08-25T08:56:06.941Z,61.75
2022-08-25T08:59:06.101Z,62.30
2022-08-25T09:01:54.106Z,61.49
2022-08-25T09:04:37.629Z,61.23
2022-08-25T09:07:11.739Z,60.02
2022-08-25T09:09:42.159Z,61.06
2022-08-25T09:12:41.365Z,62.39
2022-08-25T09:16:00.057Z,61.85
2022-08-25T09:18:51.189Z,59.51
2022-08-25T09:21:36.032Z,59.72
2022-08-25T09:24:30.702Z,59.04
2022-08-25T09:27:15.068Z,58.46
2022-08-25T09:30:01.771Z,59.35
2022-08-25T09:32:36.117Z,58.26
2022-08-25T09:35:04.912Z,58.47
2022-08-25T09:37:31.713Z,56.68
2022-08-25T09:39:59.242Z,56.42
2022-08-25T09:42:48.203Z,56.33
2022-08-25T09:45:17.387Z,56.16
2022-08-25T09:47:46.058Z,57.67
2022-08-25T09:50:20.201Z,57.50
2022-08-25T09:52:46.985Z,57.55
2022-08-25T09:55:29.607Z,58.01
2022-08-25T09:57:59.631Z,56.49
2022-08-25T10:00:30.621Z,56.23
2022-08-25T10:03:22.852Z,55.34
2022-08-25T10:06:04.256Z,53.01
2022-08-25T10:08:55.651Z,52.65
2022-08-25T10:11:33.405Z,53.05
2022-08-25T10:14:26.396Z,52.20
2022-08-25T10:16:54.625Z,52.28
2022-08-25T10:19:30.535Z,52.24
2022-08-25T10:22:07.916Z,52.01
2022-08-25T10:24:35.226Z,52.70
2022-08-25T10:27:17.369Z,51.60
2022-08-25T10:30:14.968Z,51.95
2022-08-25T10:33:15.611Z,49.60
2022-08-25T10:36:06.700Z,49.06
2022-08-25T10:38:36.236Z,49.28
2022-08-25T10:41:44.612Z,50.17
2022-08-25T10:44:39.028Z,50.14
2022-08-25T10:47:29.938Z,49.24
2022-08-25T10:50:05.429Z,49.29
2022-08-25T10:53:05.295Z,49.29
2022-08-25T10:55:47.322Z,48.04
2022-08-25T10:58:35.392Z,46.13
2022-08-25T11:01:19.223Z,46.28
2022-08-25T11:04:07.496Z,46.44
2022-08-25T11:06:56.651Z,45.58
2022-08-25T11:09:33.306Z,45.85
2022-08-25T11:12:10.021Z,46.10
2022-08-25T11:14:43.050Z,46.32
2022-08-25T11:17:29.583Z,47.12
2022-08-25T11:20:03.587Z,47.08
2022-08-25T11:22:40.621Z,46.47
2022-08-25T11:25:12.828Z,47.01
2022-08-25T11:28:20.671Z,47.64
2022-08-25T11:30:51.284Z,47.55
2022-08-25T11:33:19.718Z,46.10
2022-08-25T11:35:57.098Z,46.72
2022-08-25T11:38:36.091Z,45.44
2022-08-25T11:41:11.425Z,45.75
2022-08-25T11:43:55.056Z,45.78
2022-08-25T11:46:40.164Z,44.04
2022-08-25T11:49:27.680Z,43.53
2022-08-25T11:51:55.682Z,44.34
2022-08-25T11:54:35.668Z,42.79
2022-08-25T11:57:06.558Z,44.86
2022-08-25T11:59:54.330Z,44.91
2022-08-25T12:02:39.148Z,45.55
2022-08-25T12:05:11.250Z,45.66
2022-08-25T12:08:24.275Z,46.08
2022-08-25T12:10:55.337Z,47.28
2022-08-25T12:13:38.616Z,48.20
2022-08-25T12:16:05.976Z,48.28
2022-08-25T12:18:32.696Z,46.23
2022-08-25T12:21:00.174Z,46.70
2022-08-25T12:23:50.407Z,45.21
2022-08-25T12:26:31.827Z,43.30
2022-08-25T12:29:26.616Z,43.30
2022-08-25T12:32:03.174Z,42.57
2022-08-25T12:34:40.887Z,42.30
2022-08-25T12:37:25.317Z,41.22
2022-08-25T12:39:54.535Z,42.40
2022-08-25T12:42:45.060Z,41.52
2022-08-25T12:45:24.143Z,42.79
2022-08-25T12:47:53.092Z,42.37
2022-08-25T12:50:50.395Z,41.50
2022-08-25T12:53:34.102Z,41.50
2022-08-25T12:56:06.182Z,41.54
2022-08-25T12:58:59.869Z,42.04
2022-08-25T13:01:55.872Z,43.66
2022-08-25T13:04:46.313Z,44.08
2022-08-25T13:07:34.795Z,45.51
2022-08-25T13:10:24.312Z,45.54
2022-08-25T13:13:16.912Z,46.38
2022-08-25T13:15:57.921Z,45.67
2022-08-25T13:18:31.591Z,46.69
2022-08-25T13:21:27.738Z,45.94
2022-08-25T13:26:48.962Z,46.95
2022-08-25T13:29:37.413Z,46.38
2022-08-25T13:32:14.383Z,44.83
2022-08-25T13:34:43.689Z,43.81
2022-08-25T13:37:30.409Z,44.78
2022-08-25T13:40:32.736Z,44.57
2022-08-25T13:43:07.974Z,46.01
2022-08-25T13:45:42.983Z,45.75
2022-08-25T13:48:21.147Z,47.86
2022-08-25T13:50:52.085Z,45.87
2022-08-25T13:53:26.346Z,45.47
2022-08-25T13:55:58.084Z,44.64
2022-08-25T13:58:38.709Z,42.28
2022-08-25T14:01:46.929Z,42.02
2022-08-25T14:04:51.464Z,41.95
2022-08-25T14:07:22.739Z,41.91
2022-08-25T14:09:54.346Z,43.41
2022-08-25T14:12:31.339Z,42.95
2022-08-25T14:15:03.636Z,42.18
2022-08-25T14:17:38.343Z,42.69
2022-08-25T14:20:28.974Z,41.69
2022-08-25T14:22:59.288Z,41.83
2022-08-25T14:25:28.493Z,41.63
2022-08-25T14:28:08.240Z,41.29
2022-08-25T14:30:39.589Z,41.68
2022-08-25T14:33:10.849Z,41.25
2022-08-25T14:35:38.166Z,41.63
2022-08-25T14:38:12.447Z,41.30
2022-08-25T14:40:39.864Z,41.36
2022-08-25T14:43:09.613Z,41.58
2022-08-25T14:45:40.108Z,41.70
2022-08-25T14:48:14.457Z,41.29
2022-08-25T14:50:42.262Z,41.64
2022-08-25T14:53:11.691Z,41.23
2022-08-25T14:55:39.829Z,41.56
2022-08-25T14:58:09.637Z,41.64
2022-08-25T15:00:44.607Z,42.93
2022-08-25T15:03:21.719Z,42.29
2022-08-25T15:05:48.460Z,42.67
2022-08-25T15:08:35.543Z,42.58
2022-08-25T15:11:02.275Z,43.81
2022-08-25T15:13:36.740Z,44.66
2022-08-25T15:16:04.483Z,44.38
2022-08-25T15:18:31.316Z,44.16
2022-08-25T15:20:58.328Z,44.73
2022-08-25T15:23:25.139Z,45.02
2022-08-25T15:25:56.036Z,45.47
2022-08-25T15:28:22.926Z,45.44
2022-08-25T15:30:50.787Z,45.17
2022-08-25T15:33:18.007Z,45.33
2022-08-25T15:35:45.637Z,44.75
2022-08-25T15:38:12.629Z,44.31
2022-08-25T15:40:39.535Z,43.83
2022-08-25T15:43:07.034Z,44.41
2022-08-25T15:45:36.208Z,44.97
2022-08-25T15:48:03.456Z,44.90
2022-08-25T15:50:30.448Z,43.99
2022-08-25T15:52:57.920Z,43.67
2022-08-25T15:55:24.917Z,43.98
2022-08-25T15:57:51.957Z,44.56
2022-08-25T16:00:19.245Z,44.58
2022-08-25T16:02:48.466Z,45.65
2022-08-25T16:05:16.200Z,46.03
2022-08-25T16:07:51.530Z,45.74
2022-08-25T16:10:18.858Z,46.90
2022-08-25T16:12:46.152Z,46.69
2022-08-25T16:15:13.184Z,46.91
2022-08-25T16:17:40.510Z,47.10
2022-08-25T16:20:08.264Z,47.45
2022-08-25T16:22:40.432Z,47.87
2022-08-25T16:25:07.767Z,47.32
2022-08-25T16:27:38.937Z,47.16
2022-08-25T16:30:08.004Z,48.26
2022-08-25T16:32:35.088Z,48.40
2022-08-25T16:35:04.215Z,48.16
2022-08-25T16:37:33.826Z,48.81
2022-08-25T16:40:01.481Z,49.27
2022-08-25T16:42:28.936Z,49.24
2022-08-25T16:44:55.759Z,50.15
2022-08-25T16:47:26.870Z,50.44
2022-08-25T16:49:54.329Z,50.79
2022-08-25T16:52:40.674Z,50.89
2022-08-25T16:55:13.802Z,51.73
2022-08-25T16:57:45.361Z,53.28
2022-08-25T17:00:18.702Z,53.83
2022-08-25T17:02:46.086Z,54.08
2022-08-25T17:05:14.515Z,54.52
2022-08-25T17:07:41.790Z,54.76
2022-08-25T17:10:12.894Z,54.53
2022-08-25T17:12:40.417Z,55.24
2022-08-25T17:15:07.696Z,55.49
2022-08-25T17:17:37.251Z,55.72
2022-08-25T17:20:05.003Z,56.00
2022-08-25T17:22:31.884Z,57.31
2022-08-25T17:25:00.697Z,57.59
2022-08-25T17:27:28.388Z,58.17
2022-08-25T17:29:55.950Z,58.27
2022-08-25T17:32:30.174Z,58.94
2022-08-25T17:34:58.116Z,59.33
2022-08-25T17:37:25.319Z,59.32
2022-08-25T17:40:02.579Z,60.38
2022-08-25T17:42:30.137Z,60.46
2022-08-25T17:44:57.562Z,60.69
2022-08-25T17:47:24.269Z,61.43
2022-08-25T17:49:51.020Z,61.47
2022-08-25T17:52:17.868Z,62.10
2022-08-25T17:54:48.671Z,62.03
2022-08-25T17:57:16.239Z,62.88
2022-08-25T17:59:43.045Z,62.91
2022-08-25T18:02:10.095Z,63.19
2022-08-25T18:04:38.098Z,63.09
2022-08-25T18:07:05.496Z,64.08
2022-08-25T18:09:32.301Z,64.22
2022-08-25T18:11:59.209Z,64.43
2022-08-25T18:14:25.980Z,64.46
2022-08-25T18:16:53.805Z,64.76
2022-08-25T18:19:21.142Z,65.15
2022-08-25T18:21:48.249Z,65.70
2022-08-25T18:24:14.986Z,65.74
2022-08-25T18:26:42.394Z,66.49
2022-08-25T18:29:12.922Z,66.76
2022-08-25T18:31:42.333Z,66.70
2022-08-25T18:34:11.348Z,67.16
2022-08-25T18:36:38.814Z,67.33
2022-08-25T18:39:25.871Z,67.44
2022-08-25T18:41:52.608Z,67.49
2022-08-25T18:44:19.923Z,67.90
2022-08-25T18:46:47.032Z,68.34
2022-08-25T18:49:18.428Z,68.93
2022-08-25T18:51:48.109Z,68.96
2022-08-25T18:54:22.692Z,68.96
2022-08-25T18:56:50.461Z,68.86
2022-08-25T18:59:19.226Z,69.27
2022-08-25T19:01:46.562Z,69.52
2022-08-25T19:04:15.325Z,69.51
2022-08-25T19:06:43.932Z,69.56
2022-08-25T19:09:11.149Z,70.05
2022-08-25T19:11:38.398Z,70.17
2022-08-25T19:14:12.164Z,69.72
2022-08-25T19:16:42.546Z,70.08
2022-08-25T19:19:13.311Z,70.18
2022-08-25T19:21:43.016Z,70.27
2022-08-25T19:24:12.459Z,70.42
2022-08-25T19:26:39.892Z,70.32
2022-08-25T19:29:16.348Z,70.93
2022-08-25T19:31:45.902Z,71.09
2022-08-25T19:34:18.791Z,71.10
2022-08-25T19:36:47.399Z,71.16
2022-08-25T19:39:15.334Z,71.43
2022-08-25T19:41:43.963Z,71.38
2022-08-25T19:44:14.712Z,71.09
2022-08-25T19:46:44.424Z,71.22
2022-08-25T19:49:15.988Z,71.56
2022-08-25T19:51:50.640Z,71.46
2022-08-25T19:54:22.728Z,71.82
2022-08-25T19:56:54.885Z,71.95
2022-08-25T19:59:25.180Z,72.38
2022-08-25T20:01:52.145Z,72.33
2022-08-25T20:04:19.275Z,72.24
2022-08-25T20:06:48.390Z,72.85
2022-08-25T20:09:36.009Z,72.58
2022-08-25T20:12:04.192Z,72.92
2022-08-25T20:14:35.239Z,73.42
2022-08-25T20:17:03.516Z,73.61
2022-08-25T20:19:41.755Z,74.32
2022-08-25T20:22:11.280Z,74.24
2022-08-25T20:24:51.031Z,74.45
2022-08-25T20:27:26.433Z,74.49
2022-08-25T20:29:56.137Z,74.33
2022-08-25T20:32:24.660Z,74.60
2022-08-25T20:34:58.292Z,74.47
2022-08-25T20:37:26.975Z,74.59
2022-08-25T20:39:54.483Z,74.79
2022-08-25T20:42:21.417Z,75.36
2022-08-25T20:44:48.235Z,75.01
2022-08-25T20:47:15.585Z,75.78
2022-08-25T20:49:43.995Z,75.92
2022-08-25T20:52:12.072Z,75.51
2022-08-25T20:54:40.714Z,75.85
2022-08-25T20:57:08.119Z,76.15
2022-08-25T20:59:35.040Z,76.16
2022-08-25T21:02:02.261Z,76.03
2022-08-25T21:04:31.069Z,76.62
2022-08-25T21:07:00.388Z,75.56
2022-08-25T21:09:28.252Z,75.77
2022-08-25T21:11:57.250Z,75.50
2022-08-25T21:14:25.064Z,75.49
2022-08-25T21:16:54.148Z,75.96
2022-08-25T21:19:26.790Z,76.03
2022-08-25T21:21:59.893Z,76.38
2022-08-25T21:24:28.179Z,76.34
2022-08-25T21:26:56.489Z,76.26
2022-08-25T21:29:25.966Z,76.83
2022-08-25T21:31:56.492Z,76.80
2022-08-25T21:34:23.347Z,76.72
2022-08-25T21:36:50.133Z,76.92
2022-08-25T21:39:17.405Z,77.38
2022-08-25T21:41:45.753Z,77.21
2022-08-25T21:44:13.910Z,77.60
2022-08-25T21:46:41.574Z,77.81
2022-08-25T21:49:20.506Z,77.96
2022-08-25T21:51:47.268Z,78.29
2022-08-25T21:54:18.439Z,78.34
2022-08-25T21:56:58.525Z,78.12
2022-08-25T21:59:28.515Z,78.19
2022-08-25T22:02:02.043Z,78.18
2022-08-25T22:04:29.306Z,78.35
2022-08-25T22:06:58.362Z,78.45
2022-08-25T22:09:28.321Z,78.68
2022-08-25T22:11:55.731Z,78.53
2022-08-25T22:14:24.343Z,79.01
2022-08-25T22:16:54.027Z,79.28
2022-08-25T22:19:21.581Z,79.30
2022-08-25T22:21:50.955Z,78.98
2022-08-25T22:24:18.449Z,79.50
2022-08-25T22:26:47.696Z,79.53
2022-08-25T22:29:25.328Z,79.86
2022-08-25T22:31:59.444Z,80.31
2022-08-25T22:34:32.735Z,80.33
2022-08-25T22:37:01.307Z,80.23
2022-08-25T22:39:28.906Z,80.93
2022-08-25T22:41:55.873Z,81.16
2022-08-25T22:44:23.301Z,81.40
2022-08-25T22:46:50.316Z,82.08
2022-08-25T22:49:17.659Z,82.58
2022-08-25T22:51:44.426Z,82.96
2022-08-25T22:54:15.172Z,82.90
2022-08-25T22:56:42.776Z,83.35
2022-08-25T22:59:12.583Z,83.17
2022-08-25T23:01:40.212Z,84.03
2022-08-25T23:04:07.749Z,83.66
2022-08-25T23:06:35.004Z,84.22
2022-08-25T23:09:04.335Z,84.28
2022-08-25T23:11:31.111Z,84.63
2022-08-25T23:14:00.543Z,85.10
2022-08-25T23:16:28.497Z,84.81
2022-08-25T23:18:55.359Z,85.38
2022-08-25T23:21:40.905Z,84.90
2022-08-25T23:24:10.703Z,85.26
2022-08-25T23:26:37.852Z,85.19
2022-08-25T23:29:18.533Z,85.77
2022-08-25T23:31:47.923Z,85.77
2022-08-25T23:34:16.148Z,85.57
2022-08-25T23:36:43.532Z,85.28
2022-08-25T23:39:11.439Z,85.72
2022-08-25T23:41:38.957Z,86.01
2022-08-25T23:44:06.404Z,86.41
2022-08-25T23:46:36.350Z,87.48
2022-08-25T23:49:05.809Z,88.22
2022-08-25T23:51:37.205Z,87.32
2022-08-25T23:54:09.531Z,87.71
2022-08-25T23:56:44.514Z,87.79
2022-08-25T23:59:13.186Z,88.09
